Flight Track Log - Related Links

Times and Time Zones

All times are in EDT time to prevent confusion due to time zone crossing. See the KLM1395 flight status page for this flight to view local times or setup timezone preferences in your user account.

Time Position Orientation Groundspeed Altitude Reporting Facility
EDT Latitude Longitude Course Direction KTS MPH feet Rate Location/Type
Sat 06:54:07 AM 52.3140 4.7720 North 17 20  Level FlightAware ADS-B
Sat 06:55:01 AM 52.3160 4.7680 309° West 21 24 28 Level FlightAware ADS-B
Sat 06:56:22 AM 52.3150 4.7530 264° West 21 24 30 Level FlightAware ADS-B
Sat 06:56:49 AM 52.3150 4.7480 270° West 25 29 33 Level FlightAware ADS-B
Sat 06:57:14 AM 52.3150 4.7440 270° West 12 14 34 Level FlightAware ADS-B
Sat 06:57:39 AM 52.3150 4.7430 270° West 4 5 36 Level FlightAware ADS-B
Sat 06:58:14 AM 52.3170 4.7430 360° North 17 20 37 Level FlightAware ADS-B
Sat 06:58:39 AM 52.3190 4.7430 360° North 18 21 39 Level FlightAware ADS-B
Sat 06:58:54 AM 52.3200 4.7430 360° North 14 16 41 Level FlightAware ADS-B
Sat 06:59:19 AM 52.3200 4.7410 270° West 11 13 42 Level FlightAware ADS-B
Sat 06:59:49 AM 52.3200 4.7370 270° West 19 22 44 Level FlightAware ADS-B
Sat 07:00:35 AM 52.3210 4.7330 292° West 12 14 46 Level FlightAware ADS-B
Sat 07:01:00 AM 52.3230 4.7310 329° Northwest 16 18 51 Level FlightAware ADS-B
Sat 07:01:30 AM 52.3240 4.7290 309° West 16 18 53 Level FlightAware ADS-B
Sat 07:02:00 AM 52.3260 4.7260 317° Northwest 18 21 57 Level FlightAware ADS-B
Sat 07:02:13 AM 52.3270 4.7250 329° Northwest 17 20 62 Level FlightAware ADS-B
Sat 07:02:38 AM 52.3290 4.7220 317° Northwest 23 26 64 Level FlightAware ADS-B
Sat 07:03:25 AM 52.3320 4.7160 309° West 18 21 68 Level FlightAware ADS-B
Sat 07:03:45 AM 52.3310 4.7140 231° Southwest 16 18 79 Level FlightAware ADS-B
Sat 07:04:20 AM 52.3290 4.7120 211° Southwest 8 9 84 Level FlightAware ADS-B
Sat 07:04:41 AM 52.3290 4.7110 270° West 4 5 96 Level FlightAware ADS-B
Sat 07:05:10 AM 52.3290 4.7100 270° West 3 3 105 Level FlightAware ADS-B
Sat 07:05:45 AM 52.3290 4.7090 270° West 3 3 120 Level FlightAware ADS-B
Sat 07:08:00 AM 52.4673 5.0012 52° Northeast  Level Estimated
Sat 07:08:30 AM 52.3610 4.7120 52° Northeast 164 189 400  Level FlightAware ADS-B
Sat 07:08:55 AM 52.3830 4.7140 North 175 201 1,600 2,667 Climbing FlightAware ADS-B
Sat 07:09:15 AM 52.3990 4.7160 North 177 204 2,400 2,087 Climbing FlightAware ADS-B
Sat 07:09:41 AM 52.4190 4.7180 North 195 224 3,200 1,543 Climbing FlightAware ADS-B
Sat 07:09:50 AM 52.4290 4.7190 North 211 243 3,300 1,538 Climbing FlightAware ADS-B
Sat 07:10:20 AM 52.4620 4.7220 North 242 278 4,200 2,400 Climbing FlightAware ADS-B
Sat 07:10:50 AM 52.4983 4.7265 North 1 1 5,700 3,200 Climbing FlightAware UK
Sat 07:10:50 AM 52.4980 4.7260 North 256 295 5,800 3,400 Climbing FlightAware ADS-B
Sat 07:11:20 AM 52.5340 4.7360 10° North 260 299 7,400 2,857 Climbing FlightAware ADS-B
Sat 07:11:32 AM 52.5440 4.7490 38° Northeast 271 312 7,800 1,920 Climbing FlightAware ADS-B
Sat 07:11:45 AM 52.5510 4.7640 52° Northeast 277 319 8,200 2,897 Climbing FlightAware ADS-B
Sat 07:12:30 AM 52.5710 4.8660 72° East 289 333 10,600 2,169 Climbing FlightAware ADS-B
Sat 07:13:08 AM 52.6006 4.9458 72° East 1 1 11,200 900 Climbing FlightAware UK
Sat 07:13:10 AM 52.5980 4.9470 72° East 334 384 11,200 1,571 Level FlightAware ADS-B
Sat 07:13:50 AM 52.6317 5.0407 72° East 1 1 12,300 1,773 Climbing FlightAware UK
Sat 07:13:54 AM 52.6360 5.0500 72° East 367 422 12,500 2,286 Climbing FlightAware ADS-B
Sat 07:14:32 AM 52.6703 5.1446 72° East 386 444 13,900 2,100 Climbing FlightAware UK
Sat 07:14:34 AM 52.6700 5.1400 72° East 380 437 13,900 2,500 Level FlightAware ADS-B
Sat 07:15:08 AM 52.7056 5.2346 72° East 1 1 15,400 2,591 Climbing FlightAware UK
Sat 07:15:18 AM 52.7130 5.2550 72° East 386 444 15,800 2,400 Climbing FlightAware ADS-B
Sat 07:15:58 AM 52.7510 5.3590 59° Northeast 393 452 17,400 2,143 Climbing FlightAware ADS-B
Sat 07:16:42 AM 52.7930 5.4740 59° Northeast 405 466 18,800 1,929 Climbing FlightAware ADS-B
Sat 07:17:22 AM 52.8310 5.5760 58° Northeast 412 474 20,100 1,923 Climbing FlightAware ADS-B
Sat 07:18:00 AM 52.8680 5.6790 59° Northeast 417 480 21,300 1,884 Climbing FlightAware ADS-B
Sat 07:18:48 AM 52.9160 5.8110 59° Northeast 422 486 22,800 1,773 Climbing FlightAware ADS-B
Sat 07:19:28 AM 52.9570 5.9230 59° Northeast 428 493 23,900 1,590 Climbing FlightAware ADS-B
Sat 07:20:11 AM 53.0020 6.0480 59° Northeast 436 502 25,000 1,421 Climbing FlightAware ADS-B
Sat 07:20:44 AM 53.0364 6.1481 59° Northeast 1 1 25,700 1,350 Climbing FlightAware UK
Sat 07:20:51 AM 53.0430 6.1640 59° Northeast 441 507 25,900 1,154 Climbing FlightAware ADS-B
Sat 07:21:36 AM 53.0890 6.2940 59° Northeast 449 517 26,700 1,185 Climbing FlightAware ADS-B
Sat 07:22:12 AM 53.1280 6.4040 59° Northeast 453 521 27,500 1,216 Climbing FlightAware ADS-B
Sat 07:22:50 AM 53.1706 6.5235 59° Northeast 1 1 28,200 1,050 Climbing FlightAware UK
Sat 07:22:52 AM 53.1710 6.5250 59° Northeast 457 526 28,200 1,571 Level FlightAware ADS-B
Sat 07:23:32 AM 53.2140 6.6460 59° Northeast 452 520 29,300 1,538 Climbing FlightAware ADS-B
Sat 07:24:10 AM 53.2540 6.7630 60° Northeast 449 517 30,200 1,357 Climbing FlightAware ADS-B
Sat 07:24:56 AM 53.3057 6.9034 60° Northeast 1 1 31,200 1,320 Climbing FlightAware UK
Sat 07:25:00 AM 53.3040 6.9040 60° Northeast 448 516 31,300 1,143 Climbing FlightAware ADS-B
Sat 07:25:38 AM 53.3440 7.0200 60° Northeast 445 512 32,000 1,244 Climbing FlightAware ADS-B
Sat 07:26:22 AM 53.3910 7.1570 60° Northeast 441 507 33,000 1,244 Climbing FlightAware ADS-B
Sat 07:27:00 AM 53.4280 7.2660 60° Northeast 438 504 33,700 1,091 Climbing FlightAware ADS-B
Sat 07:27:39 AM 53.4670 7.3810 60° Northeast 437 503 34,400 940 Climbing FlightAware ADS-B
Sat 07:28:23 AM 53.5120 7.5130 60° Northeast 435 501 35,000 444 Climbing FlightAware ADS-B
Sat 07:29:00 AM 53.5480 7.6220 61° Northeast 436 502 35,000  Level FlightAware ADS-B
Sat 07:29:37 AM 53.5840 7.7290 60° Northeast 438 504 35,000  Level FlightAware ADS-B
Sat 07:30:21 AM 53.6280 7.8630 61° Northeast 436 502 35,000  Level FlightAware ADS-B
Sat 07:30:57 AM 53.6630 7.9660 60° Northeast 435 501 35,000  Level FlightAware ADS-B
Sat 07:31:46 AM 53.7120 8.1130 61° Northeast 433 498 35,000  Level FlightAware ADS-B
Sat 07:32:27 AM 53.7520 8.2340 61° Northeast 432 497 35,000  Level FlightAware ADS-B
Sat 07:33:06 AM 53.7890 8.3490 61° Northeast 430 495 35,000  Level FlightAware ADS-B
Sat 07:33:50 AM 53.8290 8.4690 61° Northeast 430 495 35,000  Level FlightAware ADS-B
Sat 07:34:26 AM 53.8660 8.5850 62° Northeast 432 497 35,000  Level FlightAware ADS-B
Sat 07:35:07 AM 53.9060 8.7070 61° Northeast 436 502 35,000  Level FlightAware ADS-B
Sat 07:35:51 AM 53.9480 8.8390 62° Northeast 439 505 35,000  Level FlightAware ADS-B
Sat 07:36:30 AM 53.9860 8.9540 61° Northeast 439 505 35,000  Level FlightAware ADS-B
Sat 07:37:14 AM 54.0280 9.0900 62° Northeast 439 505 35,000  Level FlightAware ADS-B
Sat 07:37:54 AM 54.0670 9.2090 61° Northeast 440 506 35,000  Level FlightAware ADS-B
Sat 07:38:39 AM 54.1090 9.3470 63° Northeast 440 506 35,000  Level FlightAware ADS-B
Sat 07:39:14 AM 54.1430 9.4570 62° Northeast 441 507 35,000  Level FlightAware ADS-B
Sat 07:39:54 AM 54.1820 9.5790 61° Northeast 441 507 35,000  Level FlightAware ADS-B
Sat 07:40:39 AM 54.2250 9.7180 62° Northeast 442 509 35,000  Level FlightAware ADS-B
Sat 07:41:20 AM 54.2630 9.8420 62° Northeast 444 511 35,000  Level FlightAware ADS-B
Sat 07:42:00 AM 54.3020 9.9690 62° Northeast 445 512 35,000  Level FlightAware ADS-B
Sat 07:42:44 AM 54.3440 10.1070 62° Northeast 446 513 35,000  Level FlightAware ADS-B
Sat 07:43:24 AM 54.3820 10.2330 63° Northeast 448 516 35,000  Level FlightAware ADS-B
Sat 07:44:06 AM 54.4210 10.3620 63° Northeast 449 517 35,000  Level FlightAware ADS-B
Sat 07:44:48 AM 54.4620 10.4980 63° Northeast 449 517 35,000  Level FlightAware ADS-B
Sat 07:44:56 AM 54.4710 10.5230 58° Northeast 448 516 35,000  Level FlightAware ADS-B
Sat 07:45:58 AM 54.5350 10.7090 59° Northeast 448 516 35,000  Level FlightAware ADS-B
Sat 07:46:44 AM 54.5810 10.8410 59° Northeast 447 514 35,000  Level FlightAware ADS-B
Sat 07:47:21 AM 54.6210 10.9580 59° Northeast 447 514 35,000  Level FlightAware ADS-B
Sat 07:48:04 AM 54.6680 11.0960 59° Northeast 448 516 35,000  Level FlightAware ADS-B
Sat 07:48:45 AM 54.7080 11.2170 60° Northeast 449 517 35,000  Level FlightAware ADS-B
Sat 07:49:29 AM 54.7560 11.3590 60° Northeast 449 517 35,000  Level FlightAware ADS-B
Sat 07:50:10 AM 54.7990 11.4870 60° Northeast 450 518 35,000  Level FlightAware ADS-B
Sat 07:50:54 AM 54.8450 11.6280 60° Northeast 451 519 35,000  Level FlightAware ADS-B
Sat 07:51:35 AM 54.8870 11.7530 60° Northeast 452 520 35,000  Level FlightAware ADS-B
Sat 07:52:10 AM 54.9240 11.8660 60° Northeast 451 519 35,000  Level FlightAware ADS-B
Sat 07:52:50 AM 54.9650 11.9890 60° Northeast 451 519 35,000  Level FlightAware ADS-B
Sat 07:53:36 AM 55.0120 12.1340 60° Northeast 451 519 35,000  Level FlightAware ADS-B
Sat 07:54:25 AM 55.0620 12.2890 61° Northeast 445 512 35,000  Level FlightAware ADS-B
Sat 07:55:06 AM 55.1040 12.4180 60° Northeast 445 512 35,000  Level FlightAware ADS-B
Sat 07:55:45 AM 55.1440 12.5440 61° Northeast 444 511 35,000  Level FlightAware ADS-B
Sat 07:56:25 AM 55.1840 12.6670 60° Northeast 443 510 35,000  Level FlightAware ADS-B
Sat 07:57:06 AM 55.2250 12.7970 61° Northeast 443 510 35,000  Level FlightAware ADS-B
Sat 07:57:45 AM 55.2640 12.9200 61° Northeast 443 510 35,000  Level FlightAware ADS-B
Sat 07:58:25 AM 55.3040 13.0500 62° Northeast 445 512 35,000  Level FlightAware ADS-B
Sat 07:59:10 AM 55.3490 13.1910 61° Northeast 445 512 35,000  Level FlightAware ADS-B
Sat 07:59:51 AM 55.3890 13.3220 62° Northeast 446 513 35,000  Level FlightAware ADS-B
Sat 08:00:31 AM 55.4290 13.4510 61° Northeast 450 518 35,000  Level FlightAware ADS-B
Sat 08:01:11 AM 55.4680 13.5800 62° Northeast 451 519 35,000  Level FlightAware ADS-B
Sat 08:01:52 AM 55.5080 13.7090 61° Northeast 451 519 35,000  Level FlightAware ADS-B
Sat 08:02:36 AM 55.5520 13.8550 62° Northeast 451 519 35,000  Level FlightAware ADS-B
Sat 08:03:12 AM 55.5870 13.9710 62° Northeast 450 518 35,000  Level FlightAware ADS-B
Sat 08:03:51 AM 55.6260 14.0980 61° Northeast 449 517 35,000  Level FlightAware ADS-B
Sat 08:04:32 AM 55.6640 14.2280 63° Northeast 449 517 35,000  Level FlightAware ADS-B
Sat 08:05:16 AM 55.7060 14.3710 62° Northeast 448 516 35,000  Level FlightAware ADS-B
Sat 08:05:52 AM 55.7380 14.4780 62° Northeast 449 517 35,000  Level FlightAware ADS-B
Sat 08:06:41 AM 55.7900 14.6540 62° Northeast 450 518 35,000  Level FlightAware ADS-B
Sat 08:07:23 AM 55.8300 14.7920 63° Northeast 451 519 35,000  Level FlightAware ADS-B
Sat 08:07:59 AM 55.8640 14.9110 63° Northeast 451 519 35,000  Level FlightAware ADS-B
Sat 08:08:39 AM 55.9020 15.0430 63° Northeast 451 519 35,000  Level FlightAware ADS-B
Sat 08:09:18 AM 55.9400 15.1720 62° Northeast 450 518 35,000  Level FlightAware ADS-B
Sat 08:09:59 AM 55.9780 15.3040 63° Northeast 450 518 35,000  Level FlightAware ADS-B
Sat 08:10:43 AM 56.0180 15.4490 64° Northeast 449 517 35,000  Level FlightAware ADS-B
Sat 08:11:36 AM 56.0670 15.6220 63° Northeast 448 516 35,000  Level FlightAware ADS-B
Sat 08:12:14 AM 56.1030 15.7500 63° Northeast 446 513 35,000  Level FlightAware ADS-B
Sat 08:12:49 AM 56.1360 15.8690 64° Northeast 446 513 35,000  Level FlightAware ADS-B
Sat 08:13:37 AM 56.1800 16.0280 64° Northeast 446 513 35,000  Level FlightAware ADS-B
Sat 08:14:17 AM 56.2150 16.1540 63° Northeast 445 512 35,000  Level FlightAware ADS-B
Sat 08:14:53 AM 56.2490 16.2800 64° Northeast 446 513 35,000  Level FlightAware ADS-B
Sat 08:15:33 AM 56.2860 16.4170 64° Northeast 447 514 35,000  Level FlightAware ADS-B
Sat 08:16:10 AM 56.3180 16.5340 64° Northeast 449 517 35,000  Level FlightAware ADS-B
Sat 08:16:53 AM 56.3580 16.6820 64° Northeast 451 519 35,000  Level FlightAware ADS-B
Sat 08:17:33 AM 56.3940 16.8180 64° Northeast 453 521 35,000  Level FlightAware ADS-B
Sat 08:18:18 AM 56.4340 16.9690 64° Northeast 455 524 35,000  Level FlightAware ADS-B
Sat 08:18:55 AM 56.4660 17.0920 65° Northeast 455 524 35,000  Level FlightAware ADS-B
Sat 08:19:41 AM 56.5080 17.2500 64° Northeast 455 524 35,000  Level FlightAware ADS-B
Sat 08:20:21 AM 56.5460 17.3950 65° Northeast 454 522 35,000  Level FlightAware ADS-B
Sat 08:21:01 AM 56.5810 17.5330 65° Northeast 455 524 35,000  Level FlightAware ADS-B
Sat 08:21:38 AM 56.6140 17.6610 65° Northeast 455 524 35,000  Level FlightAware ADS-B
Sat 08:22:21 AM 56.6520 17.8100 65° Northeast 455 524 35,000  Level FlightAware ADS-B
Sat 08:22:59 AM 56.6850 17.9380 65° Northeast 455 524 35,000  Level FlightAware ADS-B
Sat 08:23:47 AM 56.7280 18.1080 65° Northeast 456 525 35,000  Level FlightAware ADS-B
Sat 08:24:24 AM 56.7600 18.2380 66° East 455 524 35,000  Level FlightAware ADS-B
Sat 08:25:09 AM 56.7980 18.3880 65° Northeast 456 525 35,000  Level FlightAware ADS-B
Sat 08:25:49 AM 56.8330 18.5320 66° East 457 526 35,000  Level FlightAware ADS-B
Sat 08:26:33 AM 56.8710 18.6860 66° East 457 526 35,000  Level FlightAware ADS-B
Sat 08:27:13 AM 56.9050 18.8230 66° East 456 525 35,000  Level FlightAware ADS-B
Sat 08:27:53 AM 56.9390 18.9680 67° East 455 524 35,000  Level FlightAware ADS-B
Sat 08:28:39 AM 56.9780 19.1300 66° East 455 524 35,000  Level FlightAware ADS-B
Sat 08:29:23 AM 57.0150 19.2850 66° East 455 524 35,000  Level FlightAware ADS-B
Sat 08:30:03 AM 57.0490 19.4270 66° East 454 522 35,000  Level FlightAware ADS-B
Sat 08:30:46 AM 57.0850 19.5780 66° East 454 522 35,000  Level FlightAware ADS-B
Sat 08:31:27 AM 57.1190 19.7270 67° East 453 521 35,000  Level FlightAware ADS-B
Sat 08:32:07 AM 57.1510 19.8650 67° East 452 520 35,000  Level FlightAware ADS-B
Sat 08:32:51 AM 57.1900 20.0190 65° Northeast 452 520 35,000  Level FlightAware ADS-B
Sat 08:33:27 AM 57.2230 20.1430 64° Northeast 450 518 35,000  Level FlightAware ADS-B
Sat 08:34:08 AM 57.2600 20.2850 64° Northeast 450 518 35,000  Level FlightAware ADS-B
Sat 08:34:51 AM 57.2990 20.4340 64° Northeast 449 517 35,000  Level FlightAware ADS-B
Sat 08:35:31 AM 57.3350 20.5720 64° Northeast 450 518 35,000  Level FlightAware ADS-B
Sat 08:36:11 AM 57.3710 20.7150 65° Northeast 450 518 35,000  Level FlightAware ADS-B
Sat 08:36:56 AM 57.4110 20.8720 65° Northeast 451 519 35,000  Level FlightAware ADS-B
Sat 08:37:40 AM 57.4500 21.0260 65° Northeast 451 519 35,000  Level FlightAware ADS-B
Sat 08:38:19 AM 57.4840 21.1590 65° Northeast 452 520 35,000  Level FlightAware ADS-B
Sat 08:38:59 AM 57.5200 21.3040 65° Northeast 453 521 35,000  Level FlightAware ADS-B
Sat 08:39:41 AM 57.5550 21.4490 66° East 454 522 35,000  Level FlightAware ADS-B
Sat 08:40:21 AM 57.5910 21.5940 65° Northeast 455 524 35,000  Level FlightAware ADS-B
Sat 08:41:06 AM 57.6300 21.7510 65° Northeast 455 524 35,000  Level FlightAware ADS-B
Sat 08:41:46 AM 57.6630 21.8890 66° East 454 522 35,000  Level FlightAware ADS-B
Sat 08:42:21 AM 57.6940 22.0180 66° East 455 524 35,000  Level FlightAware ADS-B
Sat 08:43:06 AM 57.7330 22.1790 66° East 454 522 35,000  Level FlightAware ADS-B
Sat 08:43:46 AM 57.7670 22.3250 66° East 454 522 35,000  Level FlightAware ADS-B
Sat 08:44:26 AM 57.8010 22.4660 66° East 455 524 35,000  Level FlightAware ADS-B
Sat 08:45:11 AM 57.8390 22.6310 67° East 455 524 35,000  Level FlightAware ADS-B
Sat 08:45:54 AM 57.8750 22.7870 66° East 454 522 35,000  Level FlightAware ADS-B
Sat 08:46:38 AM 57.9120 22.9490 67° East 454 522 35,000  Level FlightAware ADS-B
Sat 08:47:10 AM 57.9390 23.0650 66° East 453 521 35,000  Level FlightAware ADS-B
Sat 08:47:52 AM 57.9730 23.2140 67° East 453 521 35,000  Level FlightAware ADS-B
Sat 08:48:36 AM 58.0090 23.3740 67° East 452 520 35,000  Level FlightAware ADS-B
Sat 08:49:10 AM 58.0370 23.5000 67° East 452 520 35,000  Level FlightAware ADS-B
Sat 08:49:52 AM 58.0700 23.6490 67° East 450 518 35,000  Level FlightAware ADS-B
Sat 08:50:36 AM 58.1060 23.8090 67° East 451 519 35,000  Level FlightAware ADS-B
Sat 08:51:16 AM 58.1380 23.9550 67° East 452 520 35,000  Level FlightAware ADS-B
Sat 08:51:56 AM 58.1700 24.1010 67° East 452 520 35,000  Level FlightAware ADS-B
Sat 08:52:40 AM 58.2050 24.2620 68° East 453 521 35,000  Level FlightAware ADS-B
Sat 08:53:22 AM 58.2390 24.4200 68° East 452 520 35,000  Level FlightAware ADS-B
Sat 08:53:58 AM 58.2670 24.5520 68° East 453 521 35,000  Level FlightAware ADS-B
Sat 08:54:38 AM 58.2970 24.6960 68° East 451 519 35,000  Level FlightAware ADS-B
Sat 08:55:22 AM 58.3320 24.8570 67° East 450 518 35,000  Level FlightAware ADS-B
Sat 08:55:58 AM 58.3590 24.9930 69° East 448 516 35,000  Level FlightAware ADS-B
Sat 08:56:38 AM 58.3890 25.1360 68° East 448 516 35,000  Level FlightAware ADS-B
Sat 08:57:18 AM 58.4190 25.2820 69° East 446 513 35,000  Level FlightAware ADS-B
Sat 08:57:50 AM 58.4430 25.4000 69° East 446 513 35,000  Level FlightAware ADS-B
Sat 08:58:32 AM 58.4740 25.5540 69° East 444 511 35,000  Level FlightAware ADS-B
Sat 08:59:12 AM 58.5040 25.7000 68° East 444 511 35,000  Level FlightAware ADS-B
Sat 08:59:56 AM 58.5370 25.8640 69° East 441 507 35,000  Level FlightAware ADS-B
Sat 09:00:36 AM 58.5650 26.0060 69° East 439 505 35,000  Level FlightAware ADS-B
Sat 09:01:12 AM 58.5910 26.1370 69° East 437 503 35,000  Level FlightAware ADS-B
Sat 09:01:56 AM 58.6220 26.2960 69° East 436 502 35,000  Level FlightAware ADS-B
Sat 09:02:36 AM 58.6500 26.4410 70° East 435 501 35,000  Level FlightAware ADS-B
Sat 09:03:12 AM 58.6760 26.5750 69° East 434 499 35,000  Level FlightAware ADS-B
Sat 09:03:52 AM 58.7030 26.7160 70° East 434 499 35,000  Level FlightAware ADS-B
Sat 09:04:36 AM 58.7330 26.8750 70° East 435 501 35,000  Level FlightAware ADS-B
Sat 09:05:10 AM 58.7560 26.9960 70° East 436 502 35,000  Level FlightAware ADS-B
Sat 09:05:54 AM 58.7870 27.1600 70° East 437 503 35,000  Level FlightAware ADS-B
Sat 09:06:34 AM 58.8140 27.3070 70° East 437 503 35,000  Level FlightAware ADS-B
Sat 09:07:18 AM 58.8450 27.4670 69° East 437 503 35,000  Level FlightAware ADS-B
Sat 09:07:58 AM 58.8860 27.6060 60° Northeast 438 504 35,000  Level FlightAware ADS-B
Sat 09:08:40 AM 58.9290 27.7440 59° Northeast 436 502 35,000 -488 Level FlightAware ADS-B
Sat 09:09:24 AM 58.9710 27.8940 61° Northeast 434 499 34,300 -1,575 Descending FlightAware ADS-B
Sat 09:10:00 AM 59.0060 28.0200 62° Northeast 427 491 32,900 -1,973 Descending FlightAware ADS-B
Sat 09:10:37 AM 59.0410 28.1400 60° Northeast 426 490 31,900 -1,085 Descending FlightAware ADS-B
Sat 09:11:34 AM 59.0920 28.3200 61° Northeast 450 518 31,200 -1,485 Descending FlightAware ADS-B
Sat 09:12:14 AM 59.1370 28.4800 61° Northeast 451 519 29,500 -2,550 Descending FlightAware ADS-B
Sat 09:12:54 AM 59.1760 28.6220 62° Northeast 444 511 27,800 -2,471 Descending FlightAware ADS-B
Sat 09:13:39 AM 59.2190 28.7790 62° Northeast 440 506 26,000 -2,400 Descending FlightAware ADS-B
Sat 09:14:24 AM 59.2620 28.9360 62° Northeast 437 503 24,200 -2,400 Descending FlightAware ADS-B
Sat 09:14:59 AM 59.2960 29.0570 61° Northeast 430 495 22,800 -2,400 Descending FlightAware ADS-B
Sat 09:15:39 AM 59.3320 29.1930 63° Northeast 422 486 21,200 -2,325 Descending FlightAware ADS-B
Sat 09:16:19 AM 59.3690 29.3270 62° Northeast 412 474 19,700 -1,725 Descending FlightAware ADS-B
Sat 09:16:59 AM 59.4040 29.4570 62° Northeast 403 464 18,900 -1,050 Descending FlightAware ADS-B
Sat 09:17:39 AM 59.4390 29.5850 62° Northeast 396 456 18,300 -975 Descending FlightAware ADS-B
Sat 09:18:19 AM 59.4830 29.6890 50° Northeast 387 445 17,600 -1,979 Descending FlightAware ADS-B
Sat 09:19:13 AM 59.5560 29.8190 42° Northeast 387 445 15,200 -2,727 Descending FlightAware ADS-B
Sat 09:19:58 AM 59.6160 29.9260 42° Northeast 384 442 13,100 -2,414 Descending FlightAware ADS-B
Sat 09:20:40 AM 59.6660 30.0190 43° Northeast 362 417 11,700 -1,800 Descending FlightAware ADS-B
Sat 09:21:18 AM 59.7120 30.1010 42° Northeast 328 377 10,700 -1,154 Descending FlightAware ADS-B
Sat 09:21:58 AM 59.7560 30.1790 42° Northeast 290 334 10,200 -1,015 Descending FlightAware ADS-B
Sat 09:22:23 AM 59.7800 30.2230 43° Northeast 281 323 9,600 -1,650 Descending FlightAware ADS-B
Sat 09:22:38 AM 59.7930 30.2480 44° Northeast 280 322 9,100 -2,200 Descending FlightAware ADS-B
Sat 09:22:53 AM 59.8040 30.2820 57° Northeast 290 334 8,500 -1,688 Descending FlightAware ADS-B
Sat 09:23:10 AM 59.8080 30.3210 78° East 286 329 8,200 -900 Descending FlightAware ADS-B
Sat 09:23:33 AM 59.8120 30.3830 83° East 257 296 7,900 -735 Descending FlightAware ADS-B
Sat 09:23:59 AM 59.8160 30.4390 82° East 237 273 7,600 -1,320 Descending FlightAware ADS-B
Sat 09:24:23 AM 59.8200 30.4930 82° East 238 274 6,800 -1,556 Descending FlightAware ADS-B
Sat 09:24:53 AM 59.8240 30.5560 83° East 224 258 6,200 -1,200 Descending FlightAware ADS-B
Sat 09:25:33 AM 59.8170 30.6300 101° East 208 239 5,400 -1,080 Descending FlightAware ADS-B
Sat 09:25:43 AM 59.8080 30.6370 159° South 201 231 5,300 -1,200 Descending FlightAware ADS-B
Sat 09:26:03 AM 59.7910 30.6350 183° South 198 228 4,800 -1,371 Descending FlightAware ADS-B
Sat 09:26:18 AM 59.7770 30.6300 190° South 197 227 4,500 -1,355 Descending FlightAware ADS-B
Sat 09:26:34 AM 59.7670 30.6200 207° Southwest 195 224 4,100 -1,600 Descending FlightAware ADS-B
Sat 09:26:48 AM 59.7620 30.5920 250° West 189 217 3,700 -1,448 Descending FlightAware ADS-B
Sat 09:27:03 AM 59.7610 30.5680 265° West 188 216 3,400 -1,149 Descending FlightAware ADS-B
Sat 09:27:35 AM 59.7670 30.5320 288° West 187 215 2,800 -973 Descending FlightAware ADS-B
Sat 09:27:40 AM 59.7680 30.5260 288° West 187 215 2,800 -1,538 Level FlightAware ADS-B
Sat 09:28:14 AM 59.7760 30.4730 287° West 180 207 1,800 -1,579 Descending FlightAware ADS-B
Sat 09:28:37 AM 59.7820 30.4320 286° West 168 193 1,300 -1,077 Descending FlightAware ADS-B
Sat 09:28:53 AM 59.7850 30.4110 286° West 159 183 1,100 -621 Descending FlightAware ADS-B
Sat 09:29:35 AM 59.7920 30.3670 288° West 146 168 700 -740 Descending FlightAware ADS-B
Sat 09:30:06 AM 59.7990 30.3190 286° West 146 168 200 -517 Descending FlightAware ADS-B
Sat 09:30:33 AM 59.8030 30.2890 285° West 146 168 200  Level FlightAware ADS-B
Sat 09:33:00 AM 59.8003 30.2625 259° West  Level Estimated
Sat 09:34:00 AM 59.8003 30.2625 37° Northeast  Level Estimated
Sat 09:35:00 AM 59.8003 30.2625 37° Northeast  Level Estimated
Sat 09:36:00 AM 59.8003 30.2625 37° Northeast  Level Estimated
Sat 09:37:00 AM 59.8003 30.2625 37° Northeast  Level Estimated
Sat 09:38:00 AM 59.8003 30.2625 37° Northeast  Level Estimated
Sat 09:39:00 AM 59.8003 30.2625 37° Northeast  Level Estimated
Sat 09:40:00 AM 59.8003 30.2625 37° Northeast  Level Estimated
Sat 09:41:00 AM 59.8003 30.2625 37° Northeast  Level Estimated

Login

Don't have an account? Register now (free) for customized features, flight alerts, and more!